sensor_id;sensor_type;location;lat;lon;timestamp;temperature;humidity
33761;DHT22;20084;47.912;19.044;2023-08-06T00:01:44;20.70;99.90
33761;DHT22;20084;47.912;19.044;2023-08-06T00:04:09;20.70;99.90
33761;DHT22;20084;47.912;19.044;2023-08-06T00:06:34;20.70;99.90
33761;DHT22;20084;47.912;19.044;2023-08-06T00:09:00;20.70;99.90
33761;DHT22;20084;47.912;19.044;2023-08-06T00:11:25;20.70;99.90
33761;DHT22;20084;47.912;19.044;2023-08-06T00:13:51;20.70;99.90
33761;DHT22;20084;47.912;19.044;2023-08-06T00:16:16;20.70;99.90
33761;DHT22;20084;47.912;19.044;2023-08-06T00:18:42;20.70;99.90
33761;DHT22;20084;47.912;19.044;2023-08-06T00:21:07;20.70;99.90
33761;DHT22;20084;47.912;19.044;2023-08-06T00:23:33;20.70;99.90
33761;DHT22;20084;47.912;19.044;2023-08-06T00:25:58;20.80;99.90
33761;DHT22;20084;47.912;19.044;2023-08-06T00:28:24;20.80;99.90
33761;DHT22;20084;47.912;19.044;2023-08-06T00:30:53;20.80;99.90
33761;DHT22;20084;47.912;19.044;2023-08-06T00:33:19;20.80;99.90
33761;DHT22;20084;47.912;19.044;2023-08-06T00:35:44;20.80;99.90
33761;DHT22;20084;47.912;19.044;2023-08-06T00:38:10;20.80;99.90
33761;DHT22;20084;47.912;19.044;2023-08-06T00:40:35;20.80;99.90
33761;DHT22;20084;47.912;19.044;2023-08-06T00:43:03;20.80;99.90
33761;DHT22;20084;47.912;19.044;2023-08-06T00:45:28;20.80;99.90
33761;DHT22;20084;47.912;19.044;2023-08-06T00:47:55;20.80;99.90
33761;DHT22;20084;47.912;19.044;2023-08-06T00:50:21;20.80;99.90
33761;DHT22;20084;47.912;19.044;2023-08-06T00:52:51;20.80;99.90
33761;DHT22;20084;47.912;19.044;2023-08-06T00:55:16;20.80;99.90
33761;DHT22;20084;47.912;19.044;2023-08-06T00:57:42;20.70;99.90
33761;DHT22;20084;47.912;19.044;2023-08-06T01:00:08;20.70;99.90
33761;DHT22;20084;47.912;19.044;2023-08-06T01:02:33;20.70;99.90
33761;DHT22;20084;47.912;19.044;2023-08-06T01:04:59;20.70;99.90
33761;DHT22;20084;47.912;19.044;2023-08-06T01:12:42;20.60;99.90
33761;DHT22;20084;47.912;19.044;2023-08-06T01:15:11;20.60;99.90
33761;DHT22;20084;47.912;19.044;2023-08-06T01:17:38;20.60;99.90
33761;DHT22;20084;47.912;19.044;2023-08-06T01:20:05;20.60;99.90
33761;DHT22;20084;47.912;19.044;2023-08-06T01:22:30;20.70;99.90
33761;DHT22;20084;47.912;19.044;2023-08-06T01:24:56;20.60;99.90
33761;DHT22;20084;47.912;19.044;2023-08-06T01:27:28;20.60;99.90
33761;DHT22;20084;47.912;19.044;2023-08-06T01:30:03;20.60;99.90
33761;DHT22;20084;47.912;19.044;2023-08-06T01:32:30;20.60;99.90
33761;DHT22;20084;47.912;19.044;2023-08-06T01:34:57;20.60;99.90
33761;DHT22;20084;47.912;19.044;2023-08-06T01:37:24;20.60;99.90
33761;DHT22;20084;47.912;19.044;2023-08-06T01:39:50;20.60;99.90
33761;DHT22;20084;47.912;19.044;2023-08-06T01:42:15;20.60;99.90
33761;DHT22;20084;47.912;19.044;2023-08-06T01:44:41;20.60;99.90
33761;DHT22;20084;47.912;19.044;2023-08-06T01:47:06;20.60;99.90
33761;DHT22;20084;47.912;19.044;2023-08-06T01:49:32;20.60;99.90
33761;DHT22;20084;47.912;19.044;2023-08-06T01:51:57;20.60;99.90
33761;DHT22;20084;47.912;19.044;2023-08-06T01:54:23;20.60;99.90
33761;DHT22;20084;47.912;19.044;2023-08-06T01:56:48;20.50;99.90
33761;DHT22;20084;47.912;19.044;2023-08-06T01:59:14;20.40;99.90
33761;DHT22;20084;47.912;19.044;2023-08-06T02:01:39;20.40;99.90
33761;DHT22;20084;47.912;19.044;2023-08-06T02:04:05;20.40;99.90
33761;DHT22;20084;47.912;19.044;2023-08-06T02:06:30;20.30;99.90
33761;DHT22;20084;47.912;19.044;2023-08-06T02:08:56;20.30;99.90
33761;DHT22;20084;47.912;19.044;2023-08-06T02:11:21;20.30;99.90
33761;DHT22;20084;47.912;19.044;2023-08-06T02:13:47;20.20;99.90
33761;DHT22;20084;47.912;19.044;2023-08-06T02:16:12;20.20;99.90
33761;DHT22;20084;47.912;19.044;2023-08-06T02:18:38;20.20;99.90
33761;DHT22;20084;47.912;19.044;2023-08-06T02:21:03;20.20;99.90
33761;DHT22;20084;47.912;19.044;2023-08-06T02:23:29;20.20;99.90
33761;DHT22;20084;47.912;19.044;2023-08-06T02:25:58;20.20;99.90
33761;DHT22;20084;47.912;19.044;2023-08-06T02:28:23;20.20;99.90
33761;DHT22;20084;47.912;19.044;2023-08-06T02:30:50;20.20;99.90
33761;DHT22;20084;47.912;19.044;2023-08-06T02:33:15;20.20;99.90
33761;DHT22;20084;47.912;19.044;2023-08-06T02:35:40;20.20;99.90
33761;DHT22;20084;47.912;19.044;2023-08-06T02:38:06;20.20;99.90
33761;DHT22;20084;47.912;19.044;2023-08-06T02:40:31;20.20;99.90
33761;DHT22;20084;47.912;19.044;2023-08-06T02:42:57;20.20;99.90
33761;DHT22;20084;47.912;19.044;2023-08-06T02:45:22;20.20;99.90
33761;DHT22;20084;47.912;19.044;2023-08-06T02:47:48;20.20;99.90
33761;DHT22;20084;47.912;19.044;2023-08-06T02:50:14;20.20;99.90
33761;DHT22;20084;47.912;19.044;2023-08-06T02:52:39;20.20;99.90
33761;DHT22;20084;47.912;19.044;2023-08-06T02:55:06;20.20;99.90
33761;DHT22;20084;47.912;19.044;2023-08-06T02:57:31;20.20;99.90
33761;DHT22;20084;47.912;19.044;2023-08-06T02:59:57;20.20;99.90
33761;DHT22;20084;47.912;19.044;2023-08-06T03:02:22;20.20;99.90
33761;DHT22;20084;47.912;19.044;2023-08-06T03:04:48;20.20;99.90
33761;DHT22;20084;47.912;19.044;2023-08-06T03:07:13;20.20;99.90
33761;DHT22;20084;47.912;19.044;2023-08-06T03:09:39;20.20;99.90
33761;DHT22;20084;47.912;19.044;2023-08-06T03:12:04;20.20;99.90
33761;DHT22;20084;47.912;19.044;2023-08-06T03:14:30;20.20;99.90
33761;DHT22;20084;47.912;19.044;2023-08-06T03:16:55;20.10;99.90
33761;DHT22;20084;47.912;19.044;2023-08-06T03:19:21;20.10;99.90
33761;DHT22;20084;47.912;19.044;2023-08-06T03:21:46;20.10;99.90
33761;DHT22;20084;47.912;19.044;2023-08-06T03:24:13;20.10;99.90
33761;DHT22;20084;47.912;19.044;2023-08-06T03:26:38;20.10;99.90
33761;DHT22;20084;47.912;19.044;2023-08-06T03:29:04;20.10;99.90
33761;DHT22;20084;47.912;19.044;2023-08-06T03:31:29;20.10;99.90
33761;DHT22;20084;47.912;19.044;2023-08-06T03:33:55;20.10;99.90
33761;DHT22;20084;47.912;19.044;2023-08-06T03:36:20;20.00;99.90
33761;DHT22;20084;47.912;19.044;2023-08-06T03:38:47;20.00;99.90
33761;DHT22;20084;47.912;19.044;2023-08-06T03:41:12;20.00;99.90
33761;DHT22;20084;47.912;19.044;2023-08-06T03:43:38;19.90;99.90
33761;DHT22;20084;47.912;19.044;2023-08-06T03:46:03;20.00;99.90
33761;DHT22;20084;47.912;19.044;2023-08-06T03:48:29;20.00;99.90
33761;DHT22;20084;47.912;19.044;2023-08-06T03:50:54;20.00;99.90
33761;DHT22;20084;47.912;19.044;2023-08-06T03:53:20;19.90;99.90
33761;DHT22;20084;47.912;19.044;2023-08-06T03:55:45;19.90;99.90
33761;DHT22;20084;47.912;19.044;2023-08-06T03:58:11;19.90;99.90
33761;DHT22;20084;47.912;19.044;2023-08-06T04:00:36;19.90;99.90
33761;DHT22;20084;47.912;19.044;2023-08-06T04:03:02;19.90;99.90
33761;DHT22;20084;47.912;19.044;2023-08-06T04:05:27;19.90;99.90
33761;DHT22;20084;47.912;19.044;2023-08-06T04:07:53;19.90;99.90
33761;DHT22;20084;47.912;19.044;2023-08-06T04:10:18;19.90;99.90
33761;DHT22;20084;47.912;19.044;2023-08-06T04:12:44;19.90;99.90
33761;DHT22;20084;47.912;19.044;2023-08-06T04:15:09;19.90;99.90
33761;DHT22;20084;47.912;19.044;2023-08-06T04:17:35;19.90;99.90
33761;DHT22;20084;47.912;19.044;2023-08-06T04:20:00;19.90;99.90
33761;DHT22;20084;47.912;19.044;2023-08-06T04:22:27;19.90;99.90
33761;DHT22;20084;47.912;19.044;2023-08-06T04:24:52;19.90;99.90
33761;DHT22;20084;47.912;19.044;2023-08-06T04:27:18;20.00;99.90
33761;DHT22;20084;47.912;19.044;2023-08-06T04:29:44;20.00;99.90
33761;DHT22;20084;47.912;19.044;2023-08-06T04:32:10;20.00;99.90
33761;DHT22;20084;47.912;19.044;2023-08-06T04:34:36;20.00;99.90
33761;DHT22;20084;47.912;19.044;2023-08-06T04:37:02;20.00;99.90
33761;DHT22;20084;47.912;19.044;2023-08-06T04:39:28;20.00;99.90
33761;DHT22;20084;47.912;19.044;2023-08-06T04:41:54;20.00;99.90
33761;DHT22;20084;47.912;19.044;2023-08-06T04:44:20;20.00;99.90
33761;DHT22;20084;47.912;19.044;2023-08-06T04:46:45;20.00;99.90
33761;DHT22;20084;47.912;19.044;2023-08-06T04:49:11;20.00;99.90
33761;DHT22;20084;47.912;19.044;2023-08-06T04:51:36;20.00;99.90
33761;DHT22;20084;47.912;19.044;2023-08-06T04:54:02;20.00;99.90
33761;DHT22;20084;47.912;19.044;2023-08-06T04:56:28;20.00;99.90
33761;DHT22;20084;47.912;19.044;2023-08-06T04:58:53;20.00;99.90
33761;DHT22;20084;47.912;19.044;2023-08-06T05:01:19;20.00;99.90
33761;DHT22;20084;47.912;19.044;2023-08-06T05:03:44;19.80;99.90
33761;DHT22;20084;47.912;19.044;2023-08-06T05:06:10;19.70;99.90
33761;DHT22;20084;47.912;19.044;2023-08-06T05:08:35;19.40;99.90
33761;DHT22;20084;47.912;19.044;2023-08-06T05:11:01;19.20;99.90
33761;DHT22;20084;47.912;19.044;2023-08-06T05:13:27;19.10;99.90
33761;DHT22;20084;47.912;19.044;2023-08-06T05:15:55;19.00;99.90
33761;DHT22;20084;47.912;19.044;2023-08-06T05:18:20;18.90;99.90
33761;DHT22;20084;47.912;19.044;2023-08-06T05:20:47;18.80;99.90
33761;DHT22;20084;47.912;19.044;2023-08-06T05:23:12;18.70;99.90
33761;DHT22;20084;47.912;19.044;2023-08-06T05:25:38;18.50;99.90
33761;DHT22;20084;47.912;19.044;2023-08-06T05:28:04;18.40;99.90
33761;DHT22;20084;47.912;19.044;2023-08-06T05:30:29;18.20;99.90
33761;DHT22;20084;47.912;19.044;2023-08-06T05:32:55;18.20;99.90
33761;DHT22;20084;47.912;19.044;2023-08-06T05:35:21;18.10;99.90
33761;DHT22;20084;47.912;19.044;2023-08-06T05:37:47;18.10;99.90
33761;DHT22;20084;47.912;19.044;2023-08-06T05:40:12;18.10;99.90
33761;DHT22;20084;47.912;19.044;2023-08-06T05:42:38;18.10;99.90
33761;DHT22;20084;47.912;19.044;2023-08-06T05:45:04;18.10;99.90
33761;DHT22;20084;47.912;19.044;2023-08-06T05:47:29;18.20;99.90
33761;DHT22;20084;47.912;19.044;2023-08-06T05:49:55;18.20;99.90
33761;DHT22;20084;47.912;19.044;2023-08-06T05:52:21;18.20;99.90
33761;DHT22;20084;47.912;19.044;2023-08-06T05:54:46;18.10;99.90
33761;DHT22;20084;47.912;19.044;2023-08-06T05:57:11;18.20;99.90
33761;DHT22;20084;47.912;19.044;2023-08-06T05:59:37;18.10;99.90
33761;DHT22;20084;47.912;19.044;2023-08-06T06:02:02;18.20;99.90
33761;DHT22;20084;47.912;19.044;2023-08-06T06:04:28;18.30;99.90
33761;DHT22;20084;47.912;19.044;2023-08-06T06:06:54;18.30;99.90
33761;DHT22;20084;47.912;19.044;2023-08-06T06:09:19;18.30;99.90
33761;DHT22;20084;47.912;19.044;2023-08-06T06:11:45;18.30;99.90
33761;DHT22;20084;47.912;19.044;2023-08-06T06:14:10;18.20;99.90
33761;DHT22;20084;47.912;19.044;2023-08-06T06:16:36;18.20;99.90
33761;DHT22;20084;47.912;19.044;2023-08-06T06:19:01;18.20;99.90
33761;DHT22;20084;47.912;19.044;2023-08-06T06:21:27;18.20;99.90
33761;DHT22;20084;47.912;19.044;2023-08-06T06:23:52;18.20;99.90
33761;DHT22;20084;47.912;19.044;2023-08-06T06:26:18;18.20;99.90
33761;DHT22;20084;47.912;19.044;2023-08-06T06:28:43;18.20;99.90
33761;DHT22;20084;47.912;19.044;2023-08-06T06:31:09;18.20;99.90
33761;DHT22;20084;47.912;19.044;2023-08-06T06:33:35;18.20;99.90
33761;DHT22;20084;47.912;19.044;2023-08-06T06:36:00;18.20;99.90
33761;DHT22;20084;47.912;19.044;2023-08-06T06:38:28;18.20;99.90
33761;DHT22;20084;47.912;19.044;2023-08-06T06:40:56;18.30;99.90
33761;DHT22;20084;47.912;19.044;2023-08-06T06:43:22;18.40;99.90
33761;DHT22;20084;47.912;19.044;2023-08-06T06:45:52;18.40;99.90
33761;DHT22;20084;47.912;19.044;2023-08-06T06:48:17;18.50;99.90
33761;DHT22;20084;47.912;19.044;2023-08-06T06:50:46;18.60;99.90
33761;DHT22;20084;47.912;19.044;2023-08-06T06:53:12;18.60;99.90
33761;DHT22;20084;47.912;19.044;2023-08-06T06:55:37;18.70;99.90
33761;DHT22;20084;47.912;19.044;2023-08-06T06:58:03;18.60;99.90
33761;DHT22;20084;47.912;19.044;2023-08-06T07:00:28;18.60;99.90
33761;DHT22;20084;47.912;19.044;2023-08-06T07:02:54;18.60;99.90
33761;DHT22;20084;47.912;19.044;2023-08-06T07:05:19;18.60;99.90
33761;DHT22;20084;47.912;19.044;2023-08-06T07:07:44;18.60;99.90
33761;DHT22;20084;47.912;19.044;2023-08-06T07:10:10;18.60;99.90
33761;DHT22;20084;47.912;19.044;2023-08-06T07:12:36;18.60;99.90
33761;DHT22;20084;47.912;19.044;2023-08-06T07:15:03;18.50;99.90
33761;DHT22;20084;47.912;19.044;2023-08-06T07:17:30;18.40;99.90
33761;DHT22;20084;47.912;19.044;2023-08-06T07:19:55;18.40;99.90
33761;DHT22;20084;47.912;19.044;2023-08-06T07:22:21;18.30;99.90
33761;DHT22;20084;47.912;19.044;2023-08-06T07:24:46;18.20;99.90
33761;DHT22;20084;47.912;19.044;2023-08-06T07:27:12;18.10;99.90
33761;DHT22;20084;47.912;19.044;2023-08-06T07:29:37;18.10;99.90
33761;DHT22;20084;47.912;19.044;2023-08-06T07:32:03;18.20;99.90
33761;DHT22;20084;47.912;19.044;2023-08-06T07:34:28;18.20;99.90
33761;DHT22;20084;47.912;19.044;2023-08-06T07:36:54;18.20;99.90
33761;DHT22;20084;47.912;19.044;2023-08-06T07:39:19;18.30;99.90
33761;DHT22;20084;47.912;19.044;2023-08-06T07:41:45;18.40;99.90
33761;DHT22;20084;47.912;19.044;2023-08-06T07:44:11;18.40;99.90
33761;DHT22;20084;47.912;19.044;2023-08-06T07:46:36;18.50;99.90
33761;DHT22;20084;47.912;19.044;2023-08-06T07:49:03;18.50;99.90
33761;DHT22;20084;47.912;19.044;2023-08-06T07:51:28;18.50;99.90
33761;DHT22;20084;47.912;19.044;2023-08-06T07:53:54;18.50;99.90
33761;DHT22;20084;47.912;19.044;2023-08-06T07:56:19;18.50;99.90
33761;DHT22;20084;47.912;19.044;2023-08-06T07:58:45;18.50;99.90
33761;DHT22;20084;47.912;19.044;2023-08-06T08:01:10;18.50;99.90
33761;DHT22;20084;47.912;19.044;2023-08-06T08:03:36;18.50;99.90
33761;DHT22;20084;47.912;19.044;2023-08-06T08:06:01;18.60;99.90
33761;DHT22;20084;47.912;19.044;2023-08-06T08:08:27;18.70;99.90
33761;DHT22;20084;47.912;19.044;2023-08-06T08:10:53;18.80;99.90
33761;DHT22;20084;47.912;19.044;2023-08-06T08:13:20;18.90;99.90
33761;DHT22;20084;47.912;19.044;2023-08-06T08:15:45;18.90;99.90
33761;DHT22;20084;47.912;19.044;2023-08-06T08:18:11;18.90;99.90
33761;DHT22;20084;47.912;19.044;2023-08-06T08:20:37;18.90;99.90
33761;DHT22;20084;47.912;19.044;2023-08-06T08:23:02;18.90;99.90
33761;DHT22;20084;47.912;19.044;2023-08-06T08:25:28;19.00;99.90
33761;DHT22;20084;47.912;19.044;2023-08-06T08:27:54;19.00;99.90
33761;DHT22;20084;47.912;19.044;2023-08-06T08:30:20;19.00;99.90
33761;DHT22;20084;47.912;19.044;2023-08-06T08:32:45;19.00;99.90
33761;DHT22;20084;47.912;19.044;2023-08-06T08:35:11;18.90;99.90
33761;DHT22;20084;47.912;19.044;2023-08-06T08:37:38;18.90;99.90
33761;DHT22;20084;47.912;19.044;2023-08-06T08:40:05;18.90;99.90
33761;DHT22;20084;47.912;19.044;2023-08-06T08:42:30;18.80;99.90
33761;DHT22;20084;47.912;19.044;2023-08-06T08:44:56;18.80;99.90
33761;DHT22;20084;47.912;19.044;2023-08-06T08:47:21;18.80;99.90
33761;DHT22;20084;47.912;19.044;2023-08-06T08:49:47;18.80;99.90
33761;DHT22;20084;47.912;19.044;2023-08-06T08:52:14;18.70;99.90
33761;DHT22;20084;47.912;19.044;2023-08-06T08:54:40;18.70;99.90
33761;DHT22;20084;47.912;19.044;2023-08-06T08:57:05;18.60;99.90
33761;DHT22;20084;47.912;19.044;2023-08-06T08:59:32;18.60;99.90
33761;DHT22;20084;47.912;19.044;2023-08-06T09:01:58;18.50;99.90
33761;DHT22;20084;47.912;19.044;2023-08-06T09:04:25;18.40;99.90
33761;DHT22;20084;47.912;19.044;2023-08-06T09:06:51;18.40;99.90
33761;DHT22;20084;47.912;19.044;2023-08-06T09:09:22;18.40;99.90
33761;DHT22;20084;47.912;19.044;2023-08-06T09:11:50;18.30;99.90
33761;DHT22;20084;47.912;19.044;2023-08-06T09:14:16;18.30;99.90
33761;DHT22;20084;47.912;19.044;2023-08-06T09:16:42;18.20;99.90
33761;DHT22;20084;47.912;19.044;2023-08-06T09:19:09;18.20;99.90
33761;DHT22;20084;47.912;19.044;2023-08-06T09:21:38;18.20;99.90
33761;DHT22;20084;47.912;19.044;2023-08-06T09:24:08;18.20;99.90
33761;DHT22;20084;47.912;19.044;2023-08-06T09:26:33;18.20;99.90
33761;DHT22;20084;47.912;19.044;2023-08-06T09:28:59;18.20;99.90
33761;DHT22;20084;47.912;19.044;2023-08-06T09:31:26;18.30;99.90
33761;DHT22;20084;47.912;19.044;2023-08-06T09:33:59;18.30;99.90
33761;DHT22;20084;47.912;19.044;2023-08-06T09:36:24;18.30;99.90
33761;DHT22;20084;47.912;19.044;2023-08-06T09:38:50;18.40;99.90
33761;DHT22;20084;47.912;19.044;2023-08-06T09:41:25;18.40;99.90
33761;DHT22;20084;47.912;19.044;2023-08-06T09:43:51;18.40;99.90
33761;DHT22;20084;47.912;19.044;2023-08-06T09:46:16;18.40;99.90
33761;DHT22;20084;47.912;19.044;2023-08-06T09:48:48;18.50;99.90
33761;DHT22;20084;47.912;19.044;2023-08-06T09:51:14;18.60;99.90
33761;DHT22;20084;47.912;19.044;2023-08-06T09:53:40;18.60;99.90
33761;DHT22;20084;47.912;19.044;2023-08-06T09:56:06;18.60;99.90
33761;DHT22;20084;47.912;19.044;2023-08-06T09:58:31;18.70;99.90
33761;DHT22;20084;47.912;19.044;2023-08-06T10:00:58;18.70;99.90
33761;DHT22;20084;47.912;19.044;2023-08-06T10:03:23;18.70;99.90
33761;DHT22;20084;47.912;19.044;2023-08-06T10:05:49;18.80;99.90
33761;DHT22;20084;47.912;19.044;2023-08-06T10:08:15;18.90;99.90
33761;DHT22;20084;47.912;19.044;2023-08-06T10:10:41;18.90;99.90
33761;DHT22;20084;47.912;19.044;2023-08-06T10:13:06;18.90;99.90
33761;DHT22;20084;47.912;19.044;2023-08-06T10:15:33;18.80;99.90
33761;DHT22;20084;47.912;19.044;2023-08-06T10:17:59;18.70;99.90
33761;DHT22;20084;47.912;19.044;2023-08-06T10:20:26;18.70;99.90
33761;DHT22;20084;47.912;19.044;2023-08-06T10:23:01;18.80;99.90
33761;DHT22;20084;47.912;19.044;2023-08-06T10:25:30;18.80;99.90
33761;DHT22;20084;47.912;19.044;2023-08-06T10:27:56;18.80;99.90
33761;DHT22;20084;47.912;19.044;2023-08-06T10:32:50;18.70;99.90
33761;DHT22;20084;47.912;19.044;2023-08-06T10:35:32;18.60;99.90
33761;DHT22;20084;47.912;19.044;2023-08-06T10:40:31;18.50;99.90
33761;DHT22;20084;47.912;19.044;2023-08-06T10:43:00;18.50;99.90
33761;DHT22;20084;47.912;19.044;2023-08-06T10:45:26;18.50;99.90
33761;DHT22;20084;47.912;19.044;2023-08-06T10:47:54;18.40;99.90
33761;DHT22;20084;47.912;19.044;2023-08-06T10:50:23;18.40;99.90
33761;DHT22;20084;47.912;19.044;2023-08-06T10:52:50;18.30;99.90
33761;DHT22;20084;47.912;19.044;2023-08-06T10:55:22;18.20;99.90
33761;DHT22;20084;47.912;19.044;2023-08-06T10:57:48;18.20;99.90
33761;DHT22;20084;47.912;19.044;2023-08-06T11:00:14;18.30;99.90
33761;DHT22;20084;47.912;19.044;2023-08-06T11:02:39;18.30;99.90
33761;DHT22;20084;47.912;19.044;2023-08-06T11:05:06;18.30;99.90
33761;DHT22;20084;47.912;19.044;2023-08-06T11:07:32;18.20;99.90
33761;DHT22;20084;47.912;19.044;2023-08-06T11:10:00;18.20;99.90
33761;DHT22;20084;47.912;19.044;2023-08-06T11:12:26;18.20;99.90
33761;DHT22;20084;47.912;19.044;2023-08-06T11:14:53;18.20;99.90
33761;DHT22;20084;47.912;19.044;2023-08-06T11:17:19;18.20;99.90
33761;DHT22;20084;47.912;19.044;2023-08-06T11:19:44;18.20;99.90
33761;DHT22;20084;47.912;19.044;2023-08-06T11:22:10;18.20;99.90
33761;DHT22;20084;47.912;19.044;2023-08-06T11:24:37;18.20;99.90
33761;DHT22;20084;47.912;19.044;2023-08-06T11:27:02;18.20;99.90
33761;DHT22;20084;47.912;19.044;2023-08-06T11:29:38;18.20;99.90
33761;DHT22;20084;47.912;19.044;2023-08-06T11:32:04;18.20;99.90
33761;DHT22;20084;47.912;19.044;2023-08-06T11:34:30;18.20;99.90
33761;DHT22;20084;47.912;19.044;2023-08-06T11:36:56;18.20;99.90
33761;DHT22;20084;47.912;19.044;2023-08-06T11:39:22;18.10;99.90
33761;DHT22;20084;47.912;19.044;2023-08-06T11:41:48;18.20;99.90
33761;DHT22;20084;47.912;19.044;2023-08-06T11:44:13;18.20;99.90
33761;DHT22;20084;47.912;19.044;2023-08-06T11:46:55;18.20;99.90
33761;DHT22;20084;47.912;19.044;2023-08-06T11:49:36;18.20;99.90
33761;DHT22;20084;47.912;19.044;2023-08-06T11:52:19;18.20;99.90
33761;DHT22;20084;47.912;19.044;2023-08-06T11:54:46;18.30;99.90
33761;DHT22;20084;47.912;19.044;2023-08-06T11:57:11;18.40;99.90
33761;DHT22;20084;47.912;19.044;2023-08-06T11:59:37;18.30;99.90
33761;DHT22;20084;47.912;19.044;2023-08-06T12:02:04;18.30;99.90
33761;DHT22;20084;47.912;19.044;2023-08-06T12:07:17;18.20;99.90
33761;DHT22;20084;47.912;19.044;2023-08-06T12:09:42;18.20;99.90
33761;DHT22;20084;47.912;19.044;2023-08-06T12:12:08;18.20;99.90
33761;DHT22;20084;47.912;19.044;2023-08-06T12:14:33;18.20;99.90
33761;DHT22;20084;47.912;19.044;2023-08-06T12:17:01;18.20;99.90
33761;DHT22;20084;47.912;19.044;2023-08-06T12:19:27;18.20;99.90
33761;DHT22;20084;47.912;19.044;2023-08-06T12:21:53;18.30;99.90
33761;DHT22;20084;47.912;19.044;2023-08-06T12:24:18;18.30;99.90
33761;DHT22;20084;47.912;19.044;2023-08-06T12:26:43;18.40;99.90
33761;DHT22;20084;47.912;19.044;2023-08-06T12:29:09;18.50;99.90
33761;DHT22;20084;47.912;19.044;2023-08-06T12:31:35;18.50;99.90
33761;DHT22;20084;47.912;19.044;2023-08-06T12:34:00;18.50;99.90
33761;DHT22;20084;47.912;19.044;2023-08-06T12:36:26;18.50;99.90
33761;DHT22;20084;47.912;19.044;2023-08-06T12:38:51;18.50;99.90
33761;DHT22;20084;47.912;19.044;2023-08-06T12:41:16;18.50;99.90
33761;DHT22;20084;47.912;19.044;2023-08-06T12:43:42;18.50;99.90
33761;DHT22;20084;47.912;19.044;2023-08-06T12:46:07;18.60;99.90
33761;DHT22;20084;47.912;19.044;2023-08-06T12:48:33;18.60;99.90
33761;DHT22;20084;47.912;19.044;2023-08-06T12:50:58;18.70;99.90
33761;DHT22;20084;47.912;19.044;2023-08-06T12:53:24;18.80;99.90
33761;DHT22;20084;47.912;19.044;2023-08-06T12:55:50;18.90;99.90
33761;DHT22;20084;47.912;19.044;2023-08-06T12:58:15;18.80;99.90
33761;DHT22;20084;47.912;19.044;2023-08-06T13:00:41;18.80;99.90
33761;DHT22;20084;47.912;19.044;2023-08-06T13:03:06;18.90;99.90
33761;DHT22;20084;47.912;19.044;2023-08-06T13:05:32;18.90;99.90
33761;DHT22;20084;47.912;19.044;2023-08-06T13:07:58;19.00;99.90
33761;DHT22;20084;47.912;19.044;2023-08-06T13:10:24;19.00;99.90
33761;DHT22;20084;47.912;19.044;2023-08-06T13:12:50;19.10;99.90
33761;DHT22;20084;47.912;19.044;2023-08-06T13:15:16;19.00;99.90
33761;DHT22;20084;47.912;19.044;2023-08-06T13:17:45;19.20;99.90
33761;DHT22;20084;47.912;19.044;2023-08-06T13:20:11;19.30;99.90
33761;DHT22;20084;47.912;19.044;2023-08-06T13:22:37;19.20;99.90
33761;DHT22;20084;47.912;19.044;2023-08-06T13:25:03;19.10;99.90
33761;DHT22;20084;47.912;19.044;2023-08-06T13:27:29;19.20;99.90
33761;DHT22;20084;47.912;19.044;2023-08-06T13:29:55;19.10;99.90
33761;DHT22;20084;47.912;19.044;2023-08-06T13:32:20;19.00;99.90
33761;DHT22;20084;47.912;19.044;2023-08-06T13:34:46;18.90;99.90
33761;DHT22;20084;47.912;19.044;2023-08-06T13:37:12;18.90;99.90
33761;DHT22;20084;47.912;19.044;2023-08-06T13:39:38;18.80;99.90
33761;DHT22;20084;47.912;19.044;2023-08-06T13:42:04;18.70;99.90
33761;DHT22;20084;47.912;19.044;2023-08-06T13:44:30;18.50;99.90
33761;DHT22;20084;47.912;19.044;2023-08-06T13:46:55;18.40;99.90
33761;DHT22;20084;47.912;19.044;2023-08-06T13:49:21;18.30;99.90
33761;DHT22;20084;47.912;19.044;2023-08-06T13:51:47;18.20;99.90
33761;DHT22;20084;47.912;19.044;2023-08-06T13:54:13;18.20;99.90
33761;DHT22;20084;47.912;19.044;2023-08-06T13:56:39;18.10;99.90
33761;DHT22;20084;47.912;19.044;2023-08-06T13:59:05;18.10;99.90
33761;DHT22;20084;47.912;19.044;2023-08-06T14:01:31;18.10;99.90
33761;DHT22;20084;47.912;19.044;2023-08-06T14:03:56;18.10;99.90
33761;DHT22;20084;47.912;19.044;2023-08-06T14:06:22;18.10;99.90
33761;DHT22;20084;47.912;19.044;2023-08-06T14:08:48;18.10;99.90
33761;DHT22;20084;47.912;19.044;2023-08-06T14:11:13;18.10;99.90
33761;DHT22;20084;47.912;19.044;2023-08-06T14:13:39;18.20;99.90
33761;DHT22;20084;47.912;19.044;2023-08-06T14:16:05;18.10;99.90
33761;DHT22;20084;47.912;19.044;2023-08-06T14:18:31;18.10;99.90
33761;DHT22;20084;47.912;19.044;2023-08-06T14:20:57;18.00;99.90
33761;DHT22;20084;47.912;19.044;2023-08-06T14:23:23;18.10;99.90
33761;DHT22;20084;47.912;19.044;2023-08-06T14:25:48;18.00;99.90
33761;DHT22;20084;47.912;19.044;2023-08-06T14:28:14;18.10;99.90
33761;DHT22;20084;47.912;19.044;2023-08-06T14:30:40;18.20;99.90
33761;DHT22;20084;47.912;19.044;2023-08-06T14:33:06;18.30;99.90
33761;DHT22;20084;47.912;19.044;2023-08-06T14:35:31;18.30;99.90
33761;DHT22;20084;47.912;19.044;2023-08-06T14:37:57;18.30;99.90
33761;DHT22;20084;47.912;19.044;2023-08-06T14:40:23;18.30;99.90
33761;DHT22;20084;47.912;19.044;2023-08-06T14:42:51;18.30;99.90
33761;DHT22;20084;47.912;19.044;2023-08-06T14:45:17;18.30;99.90
33761;DHT22;20084;47.912;19.044;2023-08-06T14:47:42;18.20;99.90
33761;DHT22;20084;47.912;19.044;2023-08-06T14:50:08;18.30;99.90
33761;DHT22;20084;47.912;19.044;2023-08-06T14:52:34;18.30;99.90
33761;DHT22;20084;47.912;19.044;2023-08-06T14:55:00;18.20;99.90
33761;DHT22;20084;47.912;19.044;2023-08-06T14:57:27;18.20;99.90
33761;DHT22;20084;47.912;19.044;2023-08-06T14:59:54;18.20;99.90
33761;DHT22;20084;47.912;19.044;2023-08-06T15:02:20;18.10;99.90
33761;DHT22;20084;47.912;19.044;2023-08-06T15:04:46;18.10;99.90
33761;DHT22;20084;47.912;19.044;2023-08-06T15:07:12;18.20;99.90
33761;DHT22;20084;47.912;19.044;2023-08-06T15:09:38;18.20;99.90
33761;DHT22;20084;47.912;19.044;2023-08-06T15:12:04;18.20;99.90
33761;DHT22;20084;47.912;19.044;2023-08-06T15:14:29;18.10;99.90
33761;DHT22;20084;47.912;19.044;2023-08-06T15:16:55;18.20;99.90
33761;DHT22;20084;47.912;19.044;2023-08-06T15:19:23;18.20;99.90
33761;DHT22;20084;47.912;19.044;2023-08-06T15:21:50;18.20;99.90